createdAt,value
2023-05-08T00:00:18.639Z,97
2023-05-08T00:01:03.705Z,97
2023-05-08T00:01:34.218Z,97
2023-05-08T00:02:04.746Z,97
2023-05-08T00:02:36.052Z,97
2023-05-08T00:03:06.541Z,97
2023-05-08T00:03:37.487Z,97
2023-05-08T00:04:09.762Z,97
2023-05-08T00:04:41.505Z,97
2023-05-08T00:05:11.503Z,97
2023-05-08T00:05:42.493Z,97
2023-05-08T00:06:43.976Z,97
2023-05-08T00:07:14.769Z,97
2023-05-08T00:07:52.662Z,97
2023-05-08T00:09:08.413Z,97
2023-05-08T00:09:19.070Z,97
2023-05-08T00:09:51.178Z,97
2023-05-08T00:10:22.114Z,97
2023-05-08T00:11:28.125Z,97
2023-05-08T00:12:16.007Z,97
2023-05-08T00:12:47.430Z,97
2023-05-08T00:13:07.233Z,97
2023-05-08T00:13:29.756Z,97
2023-05-08T00:13:58.662Z,97
2023-05-08T00:14:36.860Z,97
2023-05-08T00:15:07.653Z,97
2023-05-08T00:15:48.965Z,97
2023-05-08T00:16:05.179Z,97
2023-05-08T00:16:37.769Z,97
2023-05-08T00:17:08.266Z,97
2023-05-08T00:17:36.393Z,97
2023-05-08T00:18:08.461Z,97
2023-05-08T00:18:38.712Z,97
2023-05-08T00:19:08.462Z,97
2023-05-08T00:19:40.187Z,97
2023-05-08T00:20:11.528Z,97
2023-05-08T00:20:43.208Z,97
2023-05-08T00:21:16.592Z,97
2023-05-08T00:21:45.666Z,97
2023-05-08T00:22:16.312Z,97
2023-05-08T00:22:46.404Z,97
2023-05-08T00:23:17.395Z,97
2023-05-08T00:23:47.496Z,97
2023-05-08T00:24:18.332Z,97
2023-05-08T00:24:51.057Z,97
2023-05-08T00:25:21.285Z,97
2023-05-08T00:25:51.707Z,97
2023-05-08T00:26:23.041Z,97
2023-05-08T00:27:11.042Z,97
2023-05-08T00:27:24.904Z,97
2023-05-08T00:27:56.359Z,97
2023-05-08T00:28:27.363Z,97
2023-05-08T00:28:57.845Z,97
2023-05-08T00:29:28.627Z,97
2023-05-08T00:29:59.017Z,97
2023-05-08T00:30:31.924Z,97
2023-05-08T00:31:03.498Z,97
2023-05-08T00:31:32.465Z,97
2023-05-08T00:32:06.826Z,97
2023-05-08T00:32:37.070Z,97
2023-05-08T00:33:06.826Z,97
2023-05-08T00:33:37.030Z,97
2023-05-08T00:34:07.466Z,98
2023-05-08T00:34:38.021Z,98
2023-05-08T00:35:10.092Z,98
2023-05-08T00:35:40.166Z,98
2023-05-08T00:36:11.050Z,98
2023-05-08T00:36:42.177Z,98
2023-05-08T00:37:14.024Z,98
2023-05-08T00:37:46.281Z,98
2023-05-08T00:38:17.553Z,98
2023-05-08T00:38:47.328Z,98
2023-05-08T00:39:17.598Z,98
2023-05-08T00:40:06.393Z,98
2023-05-08T00:40:19.634Z,98
2023-05-08T00:40:49.890Z,98
2023-05-08T00:41:21.026Z,98
2023-05-08T00:41:52.462Z,98
2023-05-08T00:42:24.377Z,98
2023-05-08T00:42:54.783Z,98
2023-05-08T00:43:25.710Z,98
2023-05-08T00:43:56.299Z,98
2023-05-08T00:44:27.331Z,98
2023-05-08T00:44:57.795Z,98
2023-05-08T00:45:29.377Z,98
2023-05-08T00:45:59.782Z,98
2023-05-08T00:46:30.950Z,98
2023-05-08T00:47:01.967Z,98
2023-05-08T00:47:33.993Z,98
2023-05-08T00:48:04.567Z,98
2023-05-08T00:48:36.263Z,98
2023-05-08T00:49:06.678Z,98
2023-05-08T00:49:37.267Z,98
2023-05-08T00:50:09.348Z,98
2023-05-08T00:50:56.650Z,98
2023-05-08T00:51:10.223Z,98
2023-05-08T00:51:40.967Z,98
2023-05-08T00:52:11.761Z,98
2023-05-08T00:52:43.706Z,98
2023-05-08T00:53:15.069Z,98
2023-05-08T00:53:45.864Z,98
2023-05-08T00:54:16.513Z,98
2023-05-08T00:54:47.374Z,98
2023-05-08T01:01:02.841Z,99
2023-05-08T01:01:31.524Z,99
2023-05-08T01:02:02.205Z,99
2023-05-08T01:02:33.974Z,99
2023-05-08T01:03:05.008Z,98
2023-05-08T01:03:34.387Z,99
2023-05-08T01:04:05.108Z,99
2023-05-08T01:04:35.751Z,99
2023-05-08T01:05:07.997Z,99
2023-05-08T01:05:39.213Z,99
2023-05-08T01:06:09.736Z,99
2023-05-08T01:06:40.833Z,99
2023-05-08T01:07:11.557Z,99
2023-05-08T01:07:42.264Z,99
2023-05-08T01:08:12.699Z,99
2023-05-08T01:08:44.084Z,99
2023-05-08T01:09:15.049Z,99
2023-05-08T01:09:46.724Z,99
2023-05-08T01:10:19.242Z,99
2023-05-08T01:10:54.611Z,99
2023-05-08T01:11:20.368Z,99
2023-05-08T01:11:50.796Z,99
2023-05-08T01:12:21.692Z,99
2023-05-08T01:12:52.308Z,99
2023-05-08T01:13:23.106Z,99
2023-05-08T01:13:54.087Z,99
2023-05-08T01:14:25.056Z,99
2023-05-08T01:14:56.254Z,99
2023-05-08T01:15:59.362Z,99
2023-05-08T01:16:29.988Z,99
2023-05-08T01:17:02.064Z,99
2023-05-08T01:17:32.101Z,99
2023-05-08T01:18:02.251Z,99
2023-05-08T01:18:33.446Z,99
2023-05-08T01:19:04.429Z,99
2023-05-08T01:19:34.880Z,99
2023-05-08T01:20:06.468Z,99
2023-05-08T01:20:38.099Z,99
2023-05-08T01:21:08.664Z,99
2023-05-08T01:21:40.840Z,99
2023-05-08T01:22:13.012Z,99
2023-05-08T01:22:42.981Z,99
2023-05-08T01:23:12.842Z,99
2023-05-08T01:23:42.877Z,99
2023-05-08T01:24:14.155Z,99
2023-05-08T01:24:44.921Z,99
2023-05-08T01:25:15.840Z,99
2023-05-08T01:25:48.173Z,99
2023-05-08T01:26:19.035Z,99
2023-05-08T01:26:50.053Z,99
2023-05-08T01:27:20.781Z,99
2023-05-08T01:27:51.183Z,99
2023-05-08T01:28:22.214Z,99
2023-05-08T01:28:53.101Z,99
2023-05-08T01:29:24.011Z,99
2023-05-08T01:29:55.081Z,99
2023-05-08T01:30:27.323Z,99
2023-05-08T01:30:58.376Z,99
2023-05-08T01:31:28.882Z,99
2023-05-08T01:31:59.717Z,99
2023-05-08T01:32:30.969Z,99
2023-05-08T01:33:02.274Z,99
2023-05-08T01:33:32.778Z,99
2023-05-08T01:34:34.295Z,99
2023-05-08T01:35:22.625Z,99
2023-05-08T01:36:08.268Z,99
2023-05-08T01:36:39.409Z,99
2023-05-08T01:37:10.493Z,99
2023-05-08T01:37:41.250Z,99
2023-05-08T01:38:11.961Z,99
2023-05-08T01:39:13.073Z,99
2023-05-08T01:40:16.259Z,99
2023-05-08T01:40:45.979Z,99
2023-05-08T01:41:17.542Z,99
2023-05-08T01:41:49.216Z,99
2023-05-08T01:42:20.463Z,99
2023-05-08T01:42:50.998Z,99
2023-05-08T01:43:22.025Z,99
2023-05-08T01:43:52.284Z,99
2023-05-08T01:44:41.751Z,99
2023-05-08T01:44:54.301Z,99
2023-05-08T01:45:25.583Z,99
2023-05-08T01:45:56.338Z,99
2023-05-08T01:46:28.090Z,99
2023-05-08T01:46:59.357Z,99
2023-05-08T01:47:30.168Z,99
2023-05-08T01:48:00.957Z,99
2023-05-08T01:48:31.769Z,99
2023-05-08T01:49:02.419Z,99
2023-05-08T01:49:33.350Z,99
2023-05-08T01:50:04.654Z,99
2023-05-08T01:50:35.338Z,99
2023-05-08T01:51:06.226Z,99
2023-05-08T01:51:38.064Z,99
2023-05-08T01:52:09.208Z,99
2023-05-08T01:52:39.865Z,99
2023-05-08T01:53:11.504Z,99
2023-05-08T01:53:41.813Z,99
2023-05-08T01:54:12.400Z,99
2023-05-08T01:54:43.329Z,99
2023-05-08T01:55:14.408Z,99
2023-05-08T01:55:45.113Z,99
2023-05-08T01:56:16.229Z,99
2023-05-08T01:56:48.168Z,99
2023-05-08T01:57:19.125Z,99
2023-05-08T01:57:50.086Z,99
2023-05-08T01:58:21.201Z,99
2023-05-08T01:58:52.106Z,99
2023-05-08T01:59:22.323Z,99
2023-05-08T01:59:53.472Z,99
2023-05-08T02:00:25.052Z,99
2023-05-08T02:00:55.232Z,99
2023-05-08T02:01:30.038Z,99
2023-05-08T02:01:58.201Z,99
2023-05-08T02:02:33.018Z,99
2023-05-08T02:03:00.031Z,99
2023-05-08T02:03:32.890Z,99
2023-05-08T02:04:01.898Z,99
2023-05-08T02:04:32.099Z,99
2023-05-08T02:05:03.345Z,99
2023-05-08T02:05:34.786Z,99
2023-05-08T02:06:05.438Z,99
2023-05-08T02:06:36.189Z,99
2023-05-08T02:07:08.040Z,99
2023-05-08T02:07:39.772Z,99
2023-05-08T02:08:11.334Z,99
2023-05-08T02:08:41.342Z,99
2023-05-08T02:09:12.274Z,99
2023-05-08T02:09:42.875Z,99
2023-05-08T02:10:49.306Z,99
2023-05-08T02:11:15.781Z,99
2023-05-08T02:11:46.517Z,99
2023-05-08T02:12:17.444Z,99
2023-05-08T02:12:49.477Z,99
2023-05-08T02:13:20.446Z,99
2023-05-08T02:13:51.225Z,99
2023-05-08T02:14:21.945Z,99
2023-05-08T02:14:52.559Z,99
2023-05-08T02:15:23.593Z,99
2023-05-08T02:15:54.292Z,99
2023-05-08T02:16:25.465Z,99
2023-05-08T02:16:56.415Z,99
2023-05-08T02:17:28.613Z,99
2023-05-08T02:17:59.359Z,99
2023-05-08T02:18:30.237Z,99
2023-05-08T02:19:01.378Z,99
2023-05-08T02:19:31.723Z,99
2023-05-08T02:20:03.174Z,99
2023-05-08T02:20:33.359Z,99
2023-05-08T02:21:04.819Z,99
2023-05-08T02:21:35.175Z,99
2023-05-08T02:22:06.270Z,99
2023-05-08T02:22:38.229Z,99
2023-05-08T02:23:09.268Z,99
2023-05-08T02:23:40.560Z,99
2023-05-08T02:24:11.605Z,99
2023-05-08T02:24:42.747Z,99
2023-05-08T02:25:13.241Z,99
2023-05-08T02:25:43.348Z,99
2023-05-08T02:26:14.649Z,99
2023-05-08T02:27:16.350Z,99
2023-05-08T02:27:47.188Z,99
2023-05-08T02:28:18.789Z,99
2023-05-08T02:28:50.660Z,99
2023-05-08T02:29:37.461Z,99
2023-05-08T02:29:53.096Z,99
2023-05-08T02:30:26.309Z,99
2023-05-08T02:30:54.939Z,99
2023-05-08T02:31:25.923Z,99
2023-05-08T02:31:56.192Z,99
2023-05-08T02:32:45.053Z,99
2023-05-08T02:33:00.529Z,99
2023-05-08T02:33:30.205Z,99
2023-05-08T02:34:12.136Z,99
2023-05-08T02:34:32.789Z,99
2023-05-08T02:35:03.894Z,99
2023-05-08T02:35:34.430Z,99
2023-05-08T02:36:05.171Z,99
2023-05-08T02:36:35.805Z,99
2023-05-08T02:37:06.433Z,99
2023-05-08T02:37:37.151Z,99
2023-05-08T02:38:08.806Z,99
2023-05-08T02:38:40.061Z,99
2023-05-08T02:39:11.508Z,99
2023-05-08T02:39:43.108Z,99
2023-05-08T02:40:13.761Z,99
2023-05-08T02:40:44.509Z,99
2023-05-08T02:41:15.349Z,99
2023-05-08T02:41:45.723Z,99
2023-05-08T02:42:16.925Z,99
2023-05-08T02:42:47.169Z,99
2023-05-08T02:43:18.441Z,99
2023-05-08T02:43:51.289Z,99
2023-05-08T02:44:21.663Z,99
2023-05-08T02:44:52.031Z,99
2023-05-08T02:45:23.609Z,99
2023-05-08T02:45:54.409Z,99
2023-05-08T02:46:25.786Z,99
2023-05-08T02:46:55.165Z,99
2023-05-08T02:47:26.724Z,99
2023-05-08T02:47:57.220Z,99
2023-05-08T02:48:28.471Z,99
2023-05-08T02:49:00.817Z,99
2023-05-08T02:50:03.118Z,99
2023-05-08T02:50:33.974Z,99
2023-05-08T02:51:04.687Z,99
2023-05-08T02:51:35.219Z,99
2023-05-08T02:52:05.861Z,99
2023-05-08T02:52:36.117Z,99
2023-05-08T02:53:07.676Z,99
2023-05-08T02:53:38.034Z,99
2023-05-08T02:54:09.214Z,99
2023-05-08T02:54:41.463Z,99
2023-05-08T02:55:13.076Z,99
2023-05-08T02:55:43.486Z,99
2023-05-08T02:56:14.030Z,99
2023-05-08T02:56:45.337Z,99
2023-05-08T02:57:16.984Z,99
2023-05-08T02:58:04.689Z,99
2023-05-08T02:58:18.239Z,99
2023-05-08T02:58:48.948Z,99
2023-05-08T02:59:20.260Z,99
2023-05-08T02:59:51.826Z,99
2023-05-08T03:00:55.416Z,99
2023-05-08T03:01:24.786Z,99
2023-05-08T03:01:55.496Z,99
2023-05-08T03:02:26.454Z,99
2023-05-08T03:02:56.819Z,99
2023-05-08T03:03:27.568Z,99
2023-05-08T03:04:28.759Z,99
2023-05-08T03:04:59.713Z,99
2023-05-08T03:05:32.759Z,99
2023-05-08T03:06:03.896Z,99
2023-05-08T03:06:36.864Z,99
2023-05-08T03:07:04.981Z,99
2023-05-08T03:07:35.071Z,99
2023-05-08T03:08:06.373Z,99
2023-05-08T03:08:37.295Z,99
2023-05-08T03:09:07.413Z,99
2023-05-08T03:09:38.634Z,99
2023-05-08T03:10:11.146Z,99
2023-05-08T03:10:42.565Z,99
2023-05-08T03:11:13.377Z,99
2023-05-08T03:11:43.392Z,99
2023-05-08T03:12:14.754Z,99
2023-05-08T03:12:44.929Z,99
2023-05-08T03:13:16.055Z,99
2023-05-08T03:13:46.856Z,99
2023-05-08T03:14:17.655Z,99
2023-05-08T03:14:48.386Z,99
2023-05-08T03:15:20.913Z,99
2023-05-08T03:15:52.466Z,99
2023-05-08T03:16:22.786Z,99
2023-05-08T03:16:53.398Z,99
2023-05-08T03:17:42.853Z,99
2023-05-08T03:17:54.961Z,99
2023-05-08T03:18:25.763Z,99
2023-05-08T03:18:56.856Z,99
2023-05-08T03:19:27.616Z,99
2023-05-08T03:19:59.040Z,99
2023-05-08T03:20:29.549Z,99
2023-05-08T03:21:01.646Z,99
2023-05-08T03:21:33.296Z,99
2023-05-08T03:22:03.834Z,99
2023-05-08T03:22:34.326Z,99
2023-05-08T03:23:05.274Z,99
2023-05-08T03:23:36.640Z,99
2023-05-08T03:24:07.404Z,99
2023-05-08T03:24:37.496Z,99
2023-05-08T03:25:08.609Z,99
2023-05-08T03:25:56.774Z,99
2023-05-08T03:26:12.069Z,99
2023-05-08T03:26:43.265Z,99
2023-05-08T03:27:45.483Z,99
2023-05-08T03:28:14.970Z,99
2023-05-08T03:28:46.436Z,99
2023-05-08T03:29:16.639Z,99
2023-05-08T03:29:47.660Z,99
2023-05-08T03:30:19.885Z,99
2023-05-08T03:30:49.955Z,99
2023-05-08T03:31:21.371Z,99
2023-05-08T03:31:52.799Z,99
2023-05-08T03:32:23.712Z,99
2023-05-08T03:32:54.560Z,99
2023-05-08T03:33:25.671Z,99
2023-05-08T03:33:56.098Z,99
2023-05-08T03:34:26.424Z,99
2023-05-08T03:34:57.583Z,99
2023-05-08T03:35:28.427Z,99
2023-05-08T03:35:59.921Z,99
2023-05-08T03:36:31.609Z,99
2023-05-08T03:37:03.132Z,99
2023-05-08T03:37:33.678Z,99
2023-05-08T03:38:04.736Z,99
2023-05-08T03:38:35.950Z,99
2023-05-08T03:39:06.077Z,99
2023-05-08T03:39:36.865Z,99
2023-05-08T03:40:08.603Z,99
2023-05-08T03:40:38.720Z,99
2023-05-08T03:41:09.606Z,99
2023-05-08T03:41:42.551Z,99
2023-05-08T03:42:13.414Z,99
2023-05-08T03:42:43.920Z,99
2023-05-08T03:43:14.572Z,99
2023-05-08T03:43:45.094Z,99
2023-05-08T03:44:15.923Z,99
2023-05-08T03:44:46.819Z,99
2023-05-08T03:45:17.969Z,99
2023-05-08T03:45:48.750Z,99
2023-05-08T03:46:22.587Z,99
2023-05-08T03:46:51.887Z,99
2023-05-08T03:47:22.956Z,99
2023-05-08T03:47:53.974Z,99
2023-05-08T03:48:24.730Z,99
2023-05-08T03:48:55.570Z,99
2023-05-08T03:49:26.058Z,99
2023-05-08T03:49:56.494Z,99
2023-05-08T03:50:27.803Z,99
2023-05-08T03:50:58.730Z,99
2023-05-08T03:51:29.896Z,99
2023-05-08T03:52:33.247Z,99
2023-05-08T03:53:03.913Z,99
2023-05-08T03:53:34.648Z,99
2023-05-08T03:54:05.261Z,99
2023-05-08T03:54:35.954Z,99
2023-05-08T03:55:07.258Z,99
2023-05-08T03:55:37.615Z,99
2023-05-08T03:56:08.720Z,99
2023-05-08T03:56:41.581Z,99
2023-05-08T03:57:12.304Z,99
2023-05-08T03:58:14.005Z,99
2023-05-08T03:58:44.844Z,99
2023-05-08T03:59:15.985Z,99
2023-05-08T03:59:45.804Z,99
2023-05-08T04:00:18.229Z,99
2023-05-08T04:00:48.631Z,99
2023-05-08T04:01:19.903Z,99
2023-05-08T04:01:51.020Z,99
2023-05-08T04:02:22.077Z,99
2023-05-08T04:02:52.381Z,99
2023-05-08T04:03:23.143Z,99
2023-05-08T04:04:24.899Z,99
2023-05-08T04:04:55.965Z,99
2023-05-08T04:05:27.040Z,99
2023-05-08T04:05:58.413Z,99
2023-05-08T04:06:32.963Z,99
2023-05-08T04:07:00.613Z,99
2023-05-08T04:07:31.006Z,99
2023-05-08T04:08:02.207Z,99
2023-05-08T04:08:33.237Z,99
2023-05-08T04:09:04.142Z,99
2023-05-08T04:09:35.090Z,99
2023-05-08T04:10:07.209Z,99
2023-05-08T04:10:37.120Z,99
2023-05-08T04:11:08.922Z,99
2023-05-08T04:11:47.473Z,99
2023-05-08T04:12:11.745Z,99
2023-05-08T04:12:42.957Z,99
2023-05-08T04:13:12.752Z,99
2023-05-08T04:13:43.259Z,99
2023-05-08T04:14:14.030Z,99
2023-05-08T04:15:07.886Z,99
2023-05-08T04:15:47.924Z,99
2023-05-08T04:16:18.113Z,99
2023-05-08T04:16:49.928Z,99
2023-05-08T04:17:21.050Z,99
2023-05-08T04:17:52.172Z,99
2023-05-08T04:18:22.299Z,99
2023-05-08T04:18:53.015Z,99
2023-05-08T04:19:24.060Z,99
2023-05-08T04:19:55.104Z,99
2023-05-08T04:20:25.939Z,99
2023-05-08T04:20:56.918Z,99
2023-05-08T04:21:28.728Z,99
2023-05-08T04:21:59.970Z,99
2023-05-08T04:22:31.201Z,99
2023-05-08T04:23:01.632Z,99
2023-05-08T04:23:32.776Z,99
2023-05-08T04:24:03.818Z,99
2023-05-08T04:24:34.183Z,99
2023-05-08T04:25:23.274Z,99
2023-05-08T04:25:36.073Z,99
2023-05-08T04:26:07.490Z,99
2023-05-08T04:26:38.962Z,99
2023-05-08T04:27:09.845Z,99
2023-05-08T04:27:40.825Z,99
2023-05-08T04:28:11.606Z,99
2023-05-08T04:28:42.807Z,99
2023-05-08T04:29:13.902Z,99
2023-05-08T04:29:43.826Z,99
2023-05-08T04:30:16.121Z,99
2023-05-08T04:30:46.767Z,99
2023-05-08T04:31:17.688Z,99
2023-05-08T04:32:19.881Z,99
2023-05-08T04:32:50.935Z,99
2023-05-08T04:33:21.727Z,99
2023-05-08T04:33:52.184Z,99
2023-05-08T04:34:40.956Z,99
2023-05-08T04:34:53.771Z,99
2023-05-08T04:35:25.160Z,99
2023-05-08T04:35:55.738Z,99
2023-05-08T04:36:26.993Z,99
2023-05-08T04:36:58.003Z,99
2023-05-08T04:37:30.671Z,99
2023-05-08T04:38:01.451Z,99
2023-05-08T04:38:32.247Z,99
2023-05-08T04:39:02.621Z,99
2023-05-08T04:39:33.477Z,99
2023-05-08T04:40:04.839Z,99
2023-05-08T04:40:35.594Z,99
2023-05-08T04:41:06.602Z,99
2023-05-08T04:41:36.989Z,99
2023-05-08T04:42:09.527Z,99
2023-05-08T04:42:40.164Z,99
2023-05-08T04:43:10.077Z,99
2023-05-08T04:43:41.476Z,99
2023-05-08T04:44:12.068Z,99
2023-05-08T04:44:43.723Z,99
2023-05-08T04:45:14.881Z,99
2023-05-08T04:45:45.133Z,99
2023-05-08T04:46:16.064Z,99
2023-05-08T04:46:47.546Z,99
2023-05-08T04:47:18.873Z,99
2023-05-08T04:47:50.104Z,99
2023-05-08T04:48:20.873Z,99
2023-05-08T04:48:51.995Z,99
2023-05-08T04:49:22.719Z,99
2023-05-08T04:49:53.322Z,99
2023-05-08T04:50:25.119Z,99
2023-05-08T04:50:54.896Z,99
2023-05-08T04:51:26.132Z,99
2023-05-08T04:51:57.720Z,99
2023-05-08T04:52:28.746Z,99
2023-05-08T04:53:00.311Z,99
2023-05-08T04:53:31.300Z,99
2023-05-08T04:54:01.994Z,99
2023-05-08T04:54:32.027Z,99
2023-05-08T04:55:03.596Z,99
2023-05-08T04:55:34.424Z,99
2023-05-08T04:56:05.479Z,99
2023-05-08T04:56:36.219Z,99
2023-05-08T04:57:07.506Z,99
2023-05-08T04:57:37.998Z,99
2023-05-08T04:58:10.456Z,99
2023-05-08T04:58:41.198Z,99
2023-05-08T04:59:12.476Z,99
2023-05-08T04:59:42.568Z,99
2023-05-08T05:00:44.382Z,99
2023-05-08T05:01:18.278Z,99
2023-05-08T05:01:45.959Z,99
2023-05-08T05:02:18.386Z,99
2023-05-08T05:02:49.232Z,99
2023-05-08T05:03:19.524Z,99
2023-05-08T05:03:50.929Z,99
2023-05-08T05:04:22.159Z,99
2023-05-08T05:04:52.452Z,99
2023-05-08T05:05:23.495Z,99
2023-05-08T05:05:54.013Z,99
2023-05-08T05:06:25.288Z,99
2023-05-08T05:06:59.548Z,99
2023-05-08T05:07:27.496Z,99
2023-05-08T05:07:58.896Z,99
2023-05-08T05:08:30.997Z,99
2023-05-08T05:09:06.487Z,99
2023-05-08T05:09:31.314Z,99
2023-05-08T05:10:03.056Z,99
2023-05-08T05:11:04.155Z,99
2023-05-08T05:11:35.074Z,99
2023-05-08T05:12:07.243Z,99
2023-05-08T05:12:37.504Z,99
2023-05-08T05:13:09.135Z,99
2023-05-08T05:13:40.150Z,99
2023-05-08T05:14:10.932Z,99
2023-05-08T05:14:41.513Z,99
2023-05-08T05:15:13.046Z,99
2023-05-08T05:16:03.924Z,99
2023-05-08T05:16:14.278Z,99
2023-05-08T05:16:45.085Z,99
2023-05-08T05:17:23.125Z,99
2023-05-08T05:17:47.598Z,99
2023-05-08T05:18:23.598Z,99
2023-05-08T05:18:50.221Z,99
2023-05-08T05:19:38.429Z,99
2023-05-08T05:19:53.463Z,99
2023-05-08T05:20:23.253Z,99
2023-05-08T05:20:53.612Z,99
2023-05-08T05:21:24.872Z,99
2023-05-08T05:21:54.990Z,99
2023-05-08T05:22:26.982Z,99
2023-05-08T05:22:57.570Z,99
2023-05-08T05:23:29.881Z,99
2023-05-08T05:24:00.481Z,99
2023-05-08T05:24:31.184Z,99
2023-05-08T05:25:02.485Z,99
2023-05-08T05:25:32.179Z,99
2023-05-08T05:26:03.705Z,99
2023-05-08T05:26:36.368Z,99
2023-05-08T05:27:05.121Z,99
2023-05-08T05:27:36.294Z,99
2023-05-08T05:28:24.672Z,99
2023-05-08T05:28:39.521Z,99
2023-05-08T05:29:09.942Z,99
2023-05-08T05:29:41.126Z,99
2023-05-08T05:30:13.854Z,99
2023-05-08T05:30:42.928Z,99
2023-05-08T05:31:13.746Z,99
2023-05-08T05:31:44.469Z,99
2023-05-08T05:32:15.155Z,99
2023-05-08T05:33:04.367Z,99
2023-05-08T05:33:17.178Z,99
2023-05-08T05:33:49.951Z,99
2023-05-08T05:34:20.360Z,99
2023-05-08T05:34:52.046Z,99
2023-05-08T05:35:23.522Z,99
2023-05-08T05:36:10.745Z,99
2023-05-08T05:36:23.826Z,99
2023-05-08T05:36:54.605Z,99
2023-05-08T05:37:25.625Z,99
2023-05-08T05:37:56.373Z,99
2023-05-08T05:38:27.270Z,99
2023-05-08T05:38:58.831Z,99
2023-05-08T05:39:30.614Z,99
2023-05-08T05:40:01.612Z,99
2023-05-08T05:40:31.554Z,99
2023-05-08T05:41:02.992Z,99
2023-05-08T05:41:33.856Z,99
2023-05-08T05:42:04.581Z,99
2023-05-08T05:42:52.722Z,99
2023-05-08T05:43:06.425Z,99
2023-05-08T05:43:37.248Z,99
2023-05-08T05:44:09.152Z,99
2023-05-08T05:44:40.304Z,99
2023-05-08T05:45:12.834Z,99
2023-05-08T05:45:42.391Z,99
2023-05-08T05:46:31.284Z,99
2023-05-08T05:46:44.692Z,99
2023-05-08T05:47:14.467Z,99
2023-05-08T05:47:45.490Z,99
2023-05-08T05:48:16.501Z,99
2023-05-08T05:48:47.021Z,99
2023-05-08T05:49:50.512Z,99
2023-05-08T05:50:19.612Z,99
2023-05-08T05:50:51.860Z,99
2023-05-08T05:51:22.711Z,99
2023-05-08T05:51:53.349Z,99
2023-05-08T05:52:24.650Z,99
2023-05-08T05:52:55.709Z,99
2023-05-08T05:53:26.442Z,99
2023-05-08T05:53:57.436Z,99
2023-05-08T05:54:28.740Z,99
2023-05-08T05:55:00.558Z,99
2023-05-08T05:55:31.062Z,99
2023-05-08T05:56:01.918Z,99
2023-05-08T05:56:32.685Z,99
2023-05-08T05:57:04.313Z,99
2023-05-08T05:57:34.499Z,99
2023-05-08T05:58:05.358Z,99
2023-05-08T05:58:36.534Z,99
2023-05-08T05:59:07.481Z,99
2023-05-08T05:59:38.922Z,99
2023-05-08T06:00:10.550Z,99
2023-05-08T06:00:57.489Z,98
2023-05-08T06:01:14.784Z,98
2023-05-08T06:01:43.212Z,98
2023-05-08T06:02:13.784Z,98
2023-05-08T06:03:16.096Z,97
2023-05-08T06:03:46.649Z,97
2023-05-08T06:04:17.648Z,97
2023-05-08T06:04:48.382Z,97
2023-05-08T06:05:21.103Z,97
2023-05-08T06:05:51.082Z,97
2023-05-08T06:06:22.686Z,97
2023-05-08T06:06:53.349Z,97
2023-05-08T06:07:23.616Z,97
2023-05-08T06:07:54.383Z,97
2023-05-08T06:08:32.905Z,96
2023-05-08T06:08:56.290Z,95
2023-05-08T06:09:27.993Z,95
2023-05-08T06:09:58.564Z,94
2023-05-08T06:10:30.755Z,93
2023-05-08T06:11:01.720Z,93
2023-05-08T06:11:32.097Z,92
2023-05-08T06:12:03.075Z,91
2023-05-08T06:12:33.922Z,90
2023-05-08T06:13:04.890Z,91
2023-05-08T06:13:35.336Z,90
2023-05-08T06:14:06.702Z,89
2023-05-08T06:14:37.437Z,88
2023-05-08T06:15:09.985Z,86
2023-05-08T06:15:41.093Z,86
2023-05-08T06:16:12.521Z,85
2023-05-08T06:16:42.203Z,85
2023-05-08T06:17:13.631Z,86
2023-05-08T06:17:44.221Z,85
2023-05-08T06:18:14.744Z,85
2023-05-08T06:19:16.594Z,84
2023-05-08T06:20:05.275Z,85
2023-05-08T06:20:35.441Z,86
2023-05-08T06:20:51.552Z,86
2023-05-08T06:21:21.427Z,83
2023-05-08T06:25:31.744Z,83
2023-05-08T06:26:01.657Z,82
2023-05-08T06:26:32.725Z,82
2023-05-08T06:27:03.898Z,82
2023-05-08T06:27:34.703Z,81
2023-05-08T06:28:06.103Z,80
2023-05-08T06:28:36.314Z,78
2023-05-08T06:29:07.595Z,77
2023-05-08T06:29:38.082Z,79
2023-05-08T06:30:09.893Z,81
2023-05-08T06:30:41.106Z,81
2023-05-08T06:31:27.014Z,79
2023-05-08T06:31:42.426Z,77
2023-05-08T06:32:13.615Z,77
2023-05-08T06:32:43.793Z,76
2023-05-08T06:33:14.957Z,77
2023-05-08T06:33:44.954Z,78
2023-05-08T06:34:15.936Z,76
2023-05-08T06:34:46.774Z,76
2023-05-08T06:35:17.904Z,76
2023-05-08T06:35:48.802Z,76
2023-05-08T06:36:20.309Z,77
2023-05-08T06:36:52.898Z,75
2023-05-08T06:37:23.600Z,74
2023-05-08T06:37:54.481Z,73
2023-05-08T06:38:24.642Z,72
2023-05-08T06:38:54.985Z,73
2023-05-08T06:39:26.008Z,74
2023-05-08T06:40:10.196Z,73
2023-05-08T06:40:28.309Z,72
2023-05-08T06:40:58.700Z,72
2023-05-08T06:41:29.632Z,72
2023-05-08T06:42:01.762Z,76
2023-05-08T06:42:33.316Z,74
2023-05-08T06:43:03.911Z,72
2023-05-08T06:43:34.282Z,73
2023-05-08T06:44:04.946Z,73
2023-05-08T06:44:36.068Z,74
2023-05-08T06:45:08.126Z,76
2023-05-08T06:45:53.552Z,73
2023-05-08T06:46:09.261Z,74
2023-05-08T06:46:40.432Z,74
2023-05-08T06:47:16.668Z,72
2023-05-08T06:47:43.547Z,73
2023-05-08T06:48:14.154Z,74
2023-05-08T06:48:44.568Z,75
2023-05-08T06:49:15.583Z,73
2023-05-08T06:49:45.818Z,73
2023-05-08T06:50:17.520Z,75
2023-05-08T06:50:47.544Z,75
2023-05-08T06:51:19.162Z,74
2023-05-08T06:51:49.566Z,74
2023-05-08T06:52:22.332Z,73
2023-05-08T06:52:53.108Z,74
2023-05-08T06:53:24.191Z,74
2023-05-08T06:53:54.828Z,73
2023-05-08T07:02:10.946Z,74
2023-05-08T07:02:58.849Z,74
2023-05-08T07:03:13.993Z,73
2023-05-08T07:03:44.344Z,74
2023-05-08T07:04:15.774Z,74
2023-05-08T07:04:48.188Z,74
2023-05-08T07:05:16.637Z,72
2023-05-08T07:05:47.102Z,73
2023-05-08T07:06:17.933Z,72
2023-05-08T07:06:48.572Z,73
2023-05-08T07:07:20.424Z,71
2023-05-08T07:07:51.078Z,74
2023-05-08T07:08:23.305Z,73
2023-05-08T07:09:12.019Z,73
2023-05-08T07:09:25.643Z,73
2023-05-08T07:09:55.806Z,71
2023-05-08T07:10:44.285Z,72
2023-05-08T07:11:27.839Z,73
2023-05-08T07:11:58.584Z,73
2023-05-08T07:12:29.792Z,74
2023-05-08T07:13:01.318Z,73
2023-05-08T07:13:32.088Z,75
2023-05-08T07:14:03.263Z,72
2023-05-08T07:14:34.897Z,72
2023-05-08T07:15:17.904Z,73
2023-05-08T07:16:07.595Z,77
2023-05-08T07:16:37.641Z,77
2023-05-08T07:17:08.868Z,72
2023-05-08T07:17:39.735Z,72
2023-05-08T07:18:12.263Z,75
2023-05-08T07:18:42.052Z,76
2023-05-08T07:19:12.876Z,73
2023-05-08T07:19:45.291Z,73
2023-05-08T07:20:15.911Z,74
2023-05-08T07:20:46.349Z,71
2023-05-08T07:21:35.233Z,72
2023-05-08T07:21:47.756Z,72
2023-05-08T07:22:18.804Z,74
2023-05-08T07:22:49.971Z,72
2023-05-08T07:23:21.462Z,73
2023-05-08T07:23:51.803Z,73
2023-05-08T07:30:43.272Z,68
2023-05-08T07:31:05.810Z,71
2023-05-08T07:31:36.761Z,72
2023-05-08T07:32:08.768Z,70
2023-05-08T07:32:40.509Z,70
2023-05-08T07:33:12.049Z,72
2023-05-08T07:33:43.350Z,69
2023-05-08T07:34:13.751Z,72
2023-05-08T07:35:14.232Z,75
2023-05-08T07:35:45.849Z,69
2023-05-08T07:36:17.343Z,72
2023-05-08T07:36:47.794Z,70
2023-05-08T07:37:19.008Z,69
2023-05-08T07:37:49.190Z,71
2023-05-08T07:38:21.154Z,70
2023-05-08T07:38:52.357Z,69
2023-05-08T07:39:21.884Z,67
2023-05-08T07:39:54.003Z,69
2023-05-08T07:40:24.324Z,71
2023-05-08T07:40:55.651Z,71
2023-05-08T07:41:58.046Z,67
2023-05-08T07:42:28.916Z,72
2023-05-08T07:42:59.482Z,69
2023-05-08T07:43:30.297Z,74
2023-05-08T07:44:01.450Z,67
2023-05-08T07:44:37.559Z,70
2023-05-08T07:45:04.217Z,65
2023-05-08T07:45:34.019Z,68
2023-05-08T07:46:05.793Z,66
2023-05-08T07:46:37.272Z,66
2023-05-08T07:47:07.690Z,66
2023-05-08T07:47:39.154Z,69
2023-05-08T07:48:09.264Z,66
2023-05-08T07:48:40.053Z,66
2023-05-08T07:49:11.373Z,65
2023-05-08T07:49:42.278Z,63
2023-05-08T07:50:13.812Z,69
2023-05-08T07:50:46.147Z,66
2023-05-08T07:51:15.619Z,65
2023-05-08T07:52:03.394Z,66
2023-05-08T07:52:17.811Z,62
2023-05-08T07:53:19.265Z,65
2023-05-08T07:53:50.257Z,65
2023-05-08T07:54:21.465Z,66
2023-05-08T07:54:52.368Z,65
2023-05-08T07:55:22.998Z,66
2023-05-08T07:55:53.731Z,68
2023-05-08T07:56:25.526Z,67
2023-05-08T07:56:57.272Z,68
2023-05-08T07:57:28.100Z,69
2023-05-08T07:57:58.321Z,65
2023-05-08T07:58:28.734Z,62
2023-05-08T07:59:00.039Z,68
2023-05-08T07:59:31.180Z,63
2023-05-08T08:00:02.495Z,63
2023-05-08T08:00:32.992Z,67